sensor_id;sensor_type;location;lat;lon;timestamp;temperature;humidity
5850;DHT22;2951;47.712;9.400;2024-03-17T00:02:21;7.20;99.90
5850;DHT22;2951;47.712;9.400;2024-03-17T00:04:47;7.20;99.90
5850;DHT22;2951;47.712;9.400;2024-03-17T00:07:13;7.10;99.90
5850;DHT22;2951;47.712;9.400;2024-03-17T00:09:40;6.90;99.90
5850;DHT22;2951;47.712;9.400;2024-03-17T00:12:06;6.80;99.90
5850;DHT22;2951;47.712;9.400;2024-03-17T00:14:33;6.90;99.90
5850;DHT22;2951;47.712;9.400;2024-03-17T00:17:05;6.90;99.90
5850;DHT22;2951;47.712;9.400;2024-03-17T00:19:34;7.00;99.90
5850;DHT22;2951;47.712;9.400;2024-03-17T00:22:00;7.00;99.90
5850;DHT22;2951;47.712;9.400;2024-03-17T00:24:28;7.00;99.90
5850;DHT22;2951;47.712;9.400;2024-03-17T00:27:03;7.10;99.90
5850;DHT22;2951;47.712;9.400;2024-03-17T00:29:29;7.10;99.90
5850;DHT22;2951;47.712;9.400;2024-03-17T00:31:54;7.30;99.90
5850;DHT22;2951;47.712;9.400;2024-03-17T00:34:20;7.20;99.90
5850;DHT22;2951;47.712;9.400;2024-03-17T00:36:47;7.20;99.90
5850;DHT22;2951;47.712;9.400;2024-03-17T00:39:13;7.10;99.90
5850;DHT22;2951;47.712;9.400;2024-03-17T00:41:40;7.10;99.90
5850;DHT22;2951;47.712;9.400;2024-03-17T00:44:07;7.10;99.90
5850;DHT22;2951;47.712;9.400;2024-03-17T00:46:33;7.00;99.90
5850;DHT22;2951;47.712;9.400;2024-03-17T00:48:59;7.00;99.90
5850;DHT22;2951;47.712;9.400;2024-03-17T00:51:25;7.00;99.90
5850;DHT22;2951;47.712;9.400;2024-03-17T00:53:51;7.10;99.90
5850;DHT22;2951;47.712;9.400;2024-03-17T00:56:17;7.10;99.90
5850;DHT22;2951;47.712;9.400;2024-03-17T00:58:44;7.00;99.90
5850;DHT22;2951;47.712;9.400;2024-03-17T01:01:13;7.00;99.90
5850;DHT22;2951;47.712;9.400;2024-03-17T01:03:39;7.00;99.90
5850;DHT22;2951;47.712;9.400;2024-03-17T01:06:06;7.00;99.90
5850;DHT22;2951;47.712;9.400;2024-03-17T01:08:32;7.00;99.90
5850;DHT22;2951;47.712;9.400;2024-03-17T01:10:58;6.90;99.90
5850;DHT22;2951;47.712;9.400;2024-03-17T01:13:24;6.80;99.90
5850;DHT22;2951;47.712;9.400;2024-03-17T01:15:53;6.90;99.90
5850;DHT22;2951;47.712;9.400;2024-03-17T01:18:19;6.90;99.90
5850;DHT22;2951;47.712;9.400;2024-03-17T01:20:48;6.80;99.90
5850;DHT22;2951;47.712;9.400;2024-03-17T01:23:14;6.80;99.90
5850;DHT22;2951;47.712;9.400;2024-03-17T01:25:40;6.90;99.90
5850;DHT22;2951;47.712;9.400;2024-03-17T01:28:06;7.00;99.90
5850;DHT22;2951;47.712;9.400;2024-03-17T01:30:32;7.00;99.90
5850;DHT22;2951;47.712;9.400;2024-03-17T01:32:58;7.10;99.90
5850;DHT22;2951;47.712;9.400;2024-03-17T01:35:27;7.20;99.90
5850;DHT22;2951;47.712;9.400;2024-03-17T01:37:53;7.20;99.90
5850;DHT22;2951;47.712;9.400;2024-03-17T01:40:19;7.20;99.90
5850;DHT22;2951;47.712;9.400;2024-03-17T01:42:46;7.30;99.90
5850;DHT22;2951;47.712;9.400;2024-03-17T01:45:20;7.40;99.90
5850;DHT22;2951;47.712;9.400;2024-03-17T01:47:49;7.40;99.90
5850;DHT22;2951;47.712;9.400;2024-03-17T01:50:15;7.30;99.90
5850;DHT22;2951;47.712;9.400;2024-03-17T01:52:45;7.40;99.90
5850;DHT22;2951;47.712;9.400;2024-03-17T01:55:12;7.20;99.90
5850;DHT22;2951;47.712;9.400;2024-03-17T01:57:38;6.90;99.90
5850;DHT22;2951;47.712;9.400;2024-03-17T02:00:04;7.00;99.90
5850;DHT22;2951;47.712;9.400;2024-03-17T02:02:36;7.10;99.90
5850;DHT22;2951;47.712;9.400;2024-03-17T02:05:01;7.20;99.90
5850;DHT22;2951;47.712;9.400;2024-03-17T02:07:28;7.30;99.90
5850;DHT22;2951;47.712;9.400;2024-03-17T02:09:59;7.00;99.90
5850;DHT22;2951;47.712;9.400;2024-03-17T02:12:26;7.10;99.90
5850;DHT22;2951;47.712;9.400;2024-03-17T02:14:52;7.20;99.90
5850;DHT22;2951;47.712;9.400;2024-03-17T02:17:18;7.30;99.90
5850;DHT22;2951;47.712;9.400;2024-03-17T02:19:48;7.40;99.90
5850;DHT22;2951;47.712;9.400;2024-03-17T02:22:14;7.50;99.90
5850;DHT22;2951;47.712;9.400;2024-03-17T02:24:41;7.50;99.90
5850;DHT22;2951;47.712;9.400;2024-03-17T02:27:07;7.50;99.90
5850;DHT22;2951;47.712;9.400;2024-03-17T02:29:33;7.40;99.90
5850;DHT22;2951;47.712;9.400;2024-03-17T02:31:58;7.50;99.90
5850;DHT22;2951;47.712;9.400;2024-03-17T02:34:24;7.50;99.90
5850;DHT22;2951;47.712;9.400;2024-03-17T02:36:50;7.50;99.90
5850;DHT22;2951;47.712;9.400;2024-03-17T02:39:16;7.50;99.90
5850;DHT22;2951;47.712;9.400;2024-03-17T02:41:57;7.40;99.90
5850;DHT22;2951;47.712;9.400;2024-03-17T02:44:23;7.40;99.90
5850;DHT22;2951;47.712;9.400;2024-03-17T02:46:49;7.40;99.90
5850;DHT22;2951;47.712;9.400;2024-03-17T02:49:15;7.30;99.90
5850;DHT22;2951;47.712;9.400;2024-03-17T02:51:44;7.20;99.90
5850;DHT22;2951;47.712;9.400;2024-03-17T02:54:10;7.20;99.90
5850;DHT22;2951;47.712;9.400;2024-03-17T02:56:36;7.20;99.90
5850;DHT22;2951;47.712;9.400;2024-03-17T02:59:01;7.20;99.90
5850;DHT22;2951;47.712;9.400;2024-03-17T03:01:27;7.30;99.90
5850;DHT22;2951;47.712;9.400;2024-03-17T03:03:53;7.20;99.90
5850;DHT22;2951;47.712;9.400;2024-03-17T03:06:19;7.10;99.90
5850;DHT22;2951;47.712;9.400;2024-03-17T03:08:45;7.10;99.90
5850;DHT22;2951;47.712;9.400;2024-03-17T03:11:14;7.00;99.90
5850;DHT22;2951;47.712;9.400;2024-03-17T03:13:41;7.00;99.90
5850;DHT22;2951;47.712;9.400;2024-03-17T03:16:07;7.00;99.90
5850;DHT22;2951;47.712;9.400;2024-03-17T03:18:34;7.00;99.90
5850;DHT22;2951;47.712;9.400;2024-03-17T03:21:00;6.90;99.90
5850;DHT22;2951;47.712;9.400;2024-03-17T03:23:26;6.90;99.90
5850;DHT22;2951;47.712;9.400;2024-03-17T03:25:55;6.80;99.90
5850;DHT22;2951;47.712;9.400;2024-03-17T03:28:22;6.60;99.90
5850;DHT22;2951;47.712;9.400;2024-03-17T03:30:48;6.50;99.90
5850;DHT22;2951;47.712;9.400;2024-03-17T03:33:14;6.40;99.90
5850;DHT22;2951;47.712;9.400;2024-03-17T03:35:40;6.40;99.90
5850;DHT22;2951;47.712;9.400;2024-03-17T03:38:05;6.40;99.90
5850;DHT22;2951;47.712;9.400;2024-03-17T03:40:31;6.60;99.90
5850;DHT22;2951;47.712;9.400;2024-03-17T03:42:58;6.40;99.90
5850;DHT22;2951;47.712;9.400;2024-03-17T03:45:24;6.50;99.90
5850;DHT22;2951;47.712;9.400;2024-03-17T03:47:51;6.50;99.90
5850;DHT22;2951;47.712;9.400;2024-03-17T03:50:19;6.60;99.90
5850;DHT22;2951;47.712;9.400;2024-03-17T03:52:45;6.70;99.90
5850;DHT22;2951;47.712;9.400;2024-03-17T03:55:11;6.80;99.90
5850;DHT22;2951;47.712;9.400;2024-03-17T03:57:37;6.90;99.90
5850;DHT22;2951;47.712;9.400;2024-03-17T04:00:03;6.80;99.90
5850;DHT22;2951;47.712;9.400;2024-03-17T04:02:38;6.80;99.90
5850;DHT22;2951;47.712;9.400;2024-03-17T04:05:06;6.80;99.90
5850;DHT22;2951;47.712;9.400;2024-03-17T04:07:32;6.70;99.90
5850;DHT22;2951;47.712;9.400;2024-03-17T04:09:57;6.80;99.90
5850;DHT22;2951;47.712;9.400;2024-03-17T04:12:24;6.90;99.90
5850;DHT22;2951;47.712;9.400;2024-03-17T04:14:50;6.90;99.90
5850;DHT22;2951;47.712;9.400;2024-03-17T04:17:19;6.90;99.90
5850;DHT22;2951;47.712;9.400;2024-03-17T04:19:51;6.90;99.90
5850;DHT22;2951;47.712;9.400;2024-03-17T04:22:21;7.00;99.90
5850;DHT22;2951;47.712;9.400;2024-03-17T04:24:50;7.00;99.90
5850;DHT22;2951;47.712;9.400;2024-03-17T04:27:19;7.00;99.90
5850;DHT22;2951;47.712;9.400;2024-03-17T04:29:52;7.00;99.90
5850;DHT22;2951;47.712;9.400;2024-03-17T04:32:18;7.00;99.90
5850;DHT22;2951;47.712;9.400;2024-03-17T04:34:44;7.00;99.90
5850;DHT22;2951;47.712;9.400;2024-03-17T04:37:10;7.00;99.90
5850;DHT22;2951;47.712;9.400;2024-03-17T04:39:38;6.90;99.90
5850;DHT22;2951;47.712;9.400;2024-03-17T04:42:05;6.90;99.90
5850;DHT22;2951;47.712;9.400;2024-03-17T04:44:31;6.90;99.90
5850;DHT22;2951;47.712;9.400;2024-03-17T04:47:01;6.90;99.90
5850;DHT22;2951;47.712;9.400;2024-03-17T04:49:29;6.90;99.90
5850;DHT22;2951;47.712;9.400;2024-03-17T04:51:55;6.80;99.90
5850;DHT22;2951;47.712;9.400;2024-03-17T04:54:21;6.70;99.90
5850;DHT22;2951;47.712;9.400;2024-03-17T04:56:47;6.60;99.90
5850;DHT22;2951;47.712;9.400;2024-03-17T04:59:13;6.60;99.90
5850;DHT22;2951;47.712;9.400;2024-03-17T05:01:38;6.60;99.90
5850;DHT22;2951;47.712;9.400;2024-03-17T05:04:04;6.70;99.90
5850;DHT22;2951;47.712;9.400;2024-03-17T05:06:30;6.60;99.90
5850;DHT22;2951;47.712;9.400;2024-03-17T05:08:58;6.50;99.90
5850;DHT22;2951;47.712;9.400;2024-03-17T05:11:23;6.40;99.90
5850;DHT22;2951;47.712;9.400;2024-03-17T05:13:49;6.60;99.90
5850;DHT22;2951;47.712;9.400;2024-03-17T05:16:15;6.50;99.90
5850;DHT22;2951;47.712;9.400;2024-03-17T05:18:42;6.50;99.90
5850;DHT22;2951;47.712;9.400;2024-03-17T05:21:08;6.40;99.90
5850;DHT22;2951;47.712;9.400;2024-03-17T05:23:35;6.30;99.90
5850;DHT22;2951;47.712;9.400;2024-03-17T05:26:01;6.30;99.90
5850;DHT22;2951;47.712;9.400;2024-03-17T05:28:28;6.40;99.90
5850;DHT22;2951;47.712;9.400;2024-03-17T05:30:55;6.40;99.90
5850;DHT22;2951;47.712;9.400;2024-03-17T05:33:23;6.40;99.90
5850;DHT22;2951;47.712;9.400;2024-03-17T05:35:49;6.40;99.90
5850;DHT22;2951;47.712;9.400;2024-03-17T05:38:27;6.40;99.90
5850;DHT22;2951;47.712;9.400;2024-03-17T05:43:19;6.30;99.90
5850;DHT22;2951;47.712;9.400;2024-03-17T05:45:45;6.20;99.90
5850;DHT22;2951;47.712;9.400;2024-03-17T05:48:10;6.20;99.90
5850;DHT22;2951;47.712;9.400;2024-03-17T05:50:36;6.20;99.90
5850;DHT22;2951;47.712;9.400;2024-03-17T05:53:02;6.20;99.90
5850;DHT22;2951;47.712;9.400;2024-03-17T05:55:28;6.20;99.90
5850;DHT22;2951;47.712;9.400;2024-03-17T05:57:54;6.20;99.90
5850;DHT22;2951;47.712;9.400;2024-03-17T06:00:20;6.30;99.90
5850;DHT22;2951;47.712;9.400;2024-03-17T06:02:46;6.30;99.90
5850;DHT22;2951;47.712;9.400;2024-03-17T06:05:14;6.30;99.90
5850;DHT22;2951;47.712;9.400;2024-03-17T06:07:40;6.40;99.90
5850;DHT22;2951;47.712;9.400;2024-03-17T06:10:06;6.40;99.90
5850;DHT22;2951;47.712;9.400;2024-03-17T06:12:33;6.50;99.90
5850;DHT22;2951;47.712;9.400;2024-03-17T06:14:59;6.50;99.90
5850;DHT22;2951;47.712;9.400;2024-03-17T06:17:25;6.50;99.90
5850;DHT22;2951;47.712;9.400;2024-03-17T06:22:42;6.50;99.90
5850;DHT22;2951;47.712;9.400;2024-03-17T06:25:08;6.60;99.90
5850;DHT22;2951;47.712;9.400;2024-03-17T06:27:34;6.70;99.90
5850;DHT22;2951;47.712;9.400;2024-03-17T06:30:00;6.80;99.90
5850;DHT22;2951;47.712;9.400;2024-03-17T06:32:34;6.80;99.90
5850;DHT22;2951;47.712;9.400;2024-03-17T06:35:03;6.90;99.90
5850;DHT22;2951;47.712;9.400;2024-03-17T06:37:29;7.00;99.90
5850;DHT22;2951;47.712;9.400;2024-03-17T06:39:54;7.00;99.90
5850;DHT22;2951;47.712;9.400;2024-03-17T06:42:20;7.10;99.90
5850;DHT22;2951;47.712;9.400;2024-03-17T06:44:46;7.00;99.90
5850;DHT22;2951;47.712;9.400;2024-03-17T06:47:12;7.00;99.90
5850;DHT22;2951;47.712;9.400;2024-03-17T06:49:38;7.00;99.90
5850;DHT22;2951;47.712;9.400;2024-03-17T06:52:03;7.10;99.90
5850;DHT22;2951;47.712;9.400;2024-03-17T06:54:29;7.10;99.90
5850;DHT22;2951;47.712;9.400;2024-03-17T06:56:57;7.10;99.90
5850;DHT22;2951;47.712;9.400;2024-03-17T06:59:23;7.30;99.90
5850;DHT22;2951;47.712;9.400;2024-03-17T07:01:49;7.20;99.90
5850;DHT22;2951;47.712;9.400;2024-03-17T07:04:15;7.50;99.90
5850;DHT22;2951;47.712;9.400;2024-03-17T07:06:42;7.70;99.90
5850;DHT22;2951;47.712;9.400;2024-03-17T07:09:09;8.00;99.90
5850;DHT22;2951;47.712;9.400;2024-03-17T07:11:36;7.90;99.90
5850;DHT22;2951;47.712;9.400;2024-03-17T07:14:02;8.10;99.90
5850;DHT22;2951;47.712;9.400;2024-03-17T07:16:29;8.30;99.90
5850;DHT22;2951;47.712;9.400;2024-03-17T07:18:57;8.60;99.90
5850;DHT22;2951;47.712;9.400;2024-03-17T07:21:25;8.80;99.90
5850;DHT22;2951;47.712;9.400;2024-03-17T07:23:50;8.90;99.90
5850;DHT22;2951;47.712;9.400;2024-03-17T07:26:16;9.10;99.90
5850;DHT22;2951;47.712;9.400;2024-03-17T07:28:42;9.20;99.90
5850;DHT22;2951;47.712;9.400;2024-03-17T07:31:08;9.40;99.90
5850;DHT22;2951;47.712;9.400;2024-03-17T07:33:35;9.40;99.90
5850;DHT22;2951;47.712;9.400;2024-03-17T07:36:00;9.70;99.90
5850;DHT22;2951;47.712;9.400;2024-03-17T07:38:28;9.90;99.90
5850;DHT22;2951;47.712;9.400;2024-03-17T07:43:26;10.10;99.90
5850;DHT22;2951;47.712;9.400;2024-03-17T07:45:59;10.30;99.90
5850;DHT22;2951;47.712;9.400;2024-03-17T07:48:25;10.30;99.90
5850;DHT22;2951;47.712;9.400;2024-03-17T07:50:55;10.40;99.90
5850;DHT22;2951;47.712;9.400;2024-03-17T07:53:24;10.50;99.90
5850;DHT22;2951;47.712;9.400;2024-03-17T07:55:59;10.50;99.90
5850;DHT22;2951;47.712;9.400;2024-03-17T07:58:26;10.50;99.90
5850;DHT22;2951;47.712;9.400;2024-03-17T08:00:52;10.60;99.90
5850;DHT22;2951;47.712;9.400;2024-03-17T08:03:20;10.60;99.90
5850;DHT22;2951;47.712;9.400;2024-03-17T08:05:49;10.50;99.90
5850;DHT22;2951;47.712;9.400;2024-03-17T08:08:15;10.60;99.90
5850;DHT22;2951;47.712;9.400;2024-03-17T08:10:41;10.60;99.90
5850;DHT22;2951;47.712;9.400;2024-03-17T08:13:07;10.80;99.90
5850;DHT22;2951;47.712;9.400;2024-03-17T08:15:34;10.90;99.90
5850;DHT22;2951;47.712;9.400;2024-03-17T08:18:00;10.80;99.90
5850;DHT22;2951;47.712;9.400;2024-03-17T08:20:28;11.00;99.90
5850;DHT22;2951;47.712;9.400;2024-03-17T08:23:19;11.10;99.90
5850;DHT22;2951;47.712;9.400;2024-03-17T08:25:59;11.10;99.90
5850;DHT22;2951;47.712;9.400;2024-03-17T08:28:25;11.00;99.90
5850;DHT22;2951;47.712;9.400;2024-03-17T08:30:55;11.00;99.90
5850;DHT22;2951;47.712;9.400;2024-03-17T08:33:21;11.30;99.90
5850;DHT22;2951;47.712;9.400;2024-03-17T08:38:20;11.40;99.90
5850;DHT22;2951;47.712;9.400;2024-03-17T08:40:46;11.60;99.90
5850;DHT22;2951;47.712;9.400;2024-03-17T08:43:12;10.90;99.90
5850;DHT22;2951;47.712;9.400;2024-03-17T08:45:38;11.00;99.90
5850;DHT22;2951;47.712;9.400;2024-03-17T08:48:04;11.20;99.90
5850;DHT22;2951;47.712;9.400;2024-03-17T08:50:30;11.30;99.90
5850;DHT22;2951;47.712;9.400;2024-03-17T08:53:00;11.70;99.90
5850;DHT22;2951;47.712;9.400;2024-03-17T08:55:26;11.80;99.90
5850;DHT22;2951;47.712;9.400;2024-03-17T08:57:51;11.90;99.90
5850;DHT22;2951;47.712;9.400;2024-03-17T09:00:19;12.10;99.90
5850;DHT22;2951;47.712;9.400;2024-03-17T09:02:45;12.00;99.90
5850;DHT22;2951;47.712;9.400;2024-03-17T09:05:11;12.20;99.90
5850;DHT22;2951;47.712;9.400;2024-03-17T09:07:38;12.30;99.90
5850;DHT22;2951;47.712;9.400;2024-03-17T09:10:04;12.10;99.90
5850;DHT22;2951;47.712;9.400;2024-03-17T09:12:30;12.20;99.90
5850;DHT22;2951;47.712;9.400;2024-03-17T09:14:57;12.30;99.90
5850;DHT22;2951;47.712;9.400;2024-03-17T09:17:28;12.20;99.90
5850;DHT22;2951;47.712;9.400;2024-03-17T09:19:53;12.20;99.90
5850;DHT22;2951;47.712;9.400;2024-03-17T09:22:21;12.70;99.90
5850;DHT22;2951;47.712;9.400;2024-03-17T09:24:47;12.70;99.90
5850;DHT22;2951;47.712;9.400;2024-03-17T09:27:13;12.60;99.90
5850;DHT22;2951;47.712;9.400;2024-03-17T09:29:45;12.70;99.90
5850;DHT22;2951;47.712;9.400;2024-03-17T09:32:11;13.10;99.90
5850;DHT22;2951;47.712;9.400;2024-03-17T09:34:46;13.00;99.90
5850;DHT22;2951;47.712;9.400;2024-03-17T09:37:14;13.20;99.90
5850;DHT22;2951;47.712;9.400;2024-03-17T09:39:39;13.40;99.90
5850;DHT22;2951;47.712;9.400;2024-03-17T09:42:05;13.60;99.90
5850;DHT22;2951;47.712;9.400;2024-03-17T09:44:37;12.90;99.90
5850;DHT22;2951;47.712;9.400;2024-03-17T09:47:05;13.10;99.90
5850;DHT22;2951;47.712;9.400;2024-03-17T09:49:32;13.20;99.90
5850;DHT22;2951;47.712;9.400;2024-03-17T09:52:01;13.20;99.90
5850;DHT22;2951;47.712;9.400;2024-03-17T09:54:27;13.30;99.90
5850;DHT22;2951;47.712;9.400;2024-03-17T09:56:53;13.40;99.90
5850;DHT22;2951;47.712;9.400;2024-03-17T09:59:20;13.30;99.90
5850;DHT22;2951;47.712;9.400;2024-03-17T10:01:45;13.50;99.90
5850;DHT22;2951;47.712;9.400;2024-03-17T10:04:14;13.60;99.90
5850;DHT22;2951;47.712;9.400;2024-03-17T10:06:56;13.60;99.90
5850;DHT22;2951;47.712;9.400;2024-03-17T10:09:22;13.50;99.90
5850;DHT22;2951;47.712;9.400;2024-03-17T10:11:48;13.60;99.90
5850;DHT22;2951;47.712;9.400;2024-03-17T10:14:17;13.00;99.90
5850;DHT22;2951;47.712;9.400;2024-03-17T10:16:43;13.10;99.90
5850;DHT22;2951;47.712;9.400;2024-03-17T10:19:10;12.80;99.90
5850;DHT22;2951;47.712;9.400;2024-03-17T10:21:43;13.10;99.90
5850;DHT22;2951;47.712;9.400;2024-03-17T10:24:09;12.80;99.90
5850;DHT22;2951;47.712;9.400;2024-03-17T10:26:42;13.30;99.90
5850;DHT22;2951;47.712;9.400;2024-03-17T10:29:21;13.50;99.90
5850;DHT22;2951;47.712;9.400;2024-03-17T10:31:51;13.50;99.90
5850;DHT22;2951;47.712;9.400;2024-03-17T10:34:17;13.80;99.90
5850;DHT22;2951;47.712;9.400;2024-03-17T10:36:50;14.00;99.90
5850;DHT22;2951;47.712;9.400;2024-03-17T10:39:24;14.10;99.90
5850;DHT22;2951;47.712;9.400;2024-03-17T10:42:01;14.20;99.90
5850;DHT22;2951;47.712;9.400;2024-03-17T10:44:27;14.00;99.90
5850;DHT22;2951;47.712;9.400;2024-03-17T10:46:55;14.20;99.90
5850;DHT22;2951;47.712;9.400;2024-03-17T10:49:29;14.20;99.90
5850;DHT22;2951;47.712;9.400;2024-03-17T10:51:57;14.30;99.90
5850;DHT22;2951;47.712;9.400;2024-03-17T10:54:24;14.50;99.90
5850;DHT22;2951;47.712;9.400;2024-03-17T11:00:10;14.40;99.90
5850;DHT22;2951;47.712;9.400;2024-03-17T11:02:23;14.60;99.90
5850;DHT22;2951;47.712;9.400;2024-03-17T11:04:53;14.90;99.90
5850;DHT22;2951;47.712;9.400;2024-03-17T11:07:20;15.10;99.90
5850;DHT22;2951;47.712;9.400;2024-03-17T11:09:46;15.40;99.90
5850;DHT22;2951;47.712;9.400;2024-03-17T11:15:44;15.20;99.90
5850;DHT22;2951;47.712;9.400;2024-03-17T11:17:52;15.30;99.90
5850;DHT22;2951;47.712;9.400;2024-03-17T11:20:23;15.10;99.90
5850;DHT22;2951;47.712;9.400;2024-03-17T11:22:56;15.40;99.90
5850;DHT22;2951;47.712;9.400;2024-03-17T11:27:55;15.50;99.90
5850;DHT22;2951;47.712;9.400;2024-03-17T11:35:51;14.70;99.90
5850;DHT22;2951;47.712;9.400;2024-03-17T11:43:47;14.90;99.90
5850;DHT22;2951;47.712;9.400;2024-03-17T11:46:13;15.00;99.90
5850;DHT22;2951;47.712;9.400;2024-03-17T11:48:38;15.20;99.90
5850;DHT22;2951;47.712;9.400;2024-03-17T11:51:07;15.30;99.90
5850;DHT22;2951;47.712;9.400;2024-03-17T11:53:35;15.20;99.90
5850;DHT22;2951;47.712;9.400;2024-03-17T11:56:00;15.20;99.90
5850;DHT22;2951;47.712;9.400;2024-03-17T11:58:31;15.20;99.90
5850;DHT22;2951;47.712;9.400;2024-03-17T12:00:58;14.90;99.90
5850;DHT22;2951;47.712;9.400;2024-03-17T12:03:25;14.80;99.90
5850;DHT22;2951;47.712;9.400;2024-03-17T12:05:51;14.70;99.90
5850;DHT22;2951;47.712;9.400;2024-03-17T12:08:19;14.10;99.90
5850;DHT22;2951;47.712;9.400;2024-03-17T12:10:48;14.10;99.90
5850;DHT22;2951;47.712;9.400;2024-03-17T12:13:14;14.80;99.90
5850;DHT22;2951;47.712;9.400;2024-03-17T12:15:40;15.00;99.90
5850;DHT22;2951;47.712;9.400;2024-03-17T12:18:19;15.20;99.90
5850;DHT22;2951;47.712;9.400;2024-03-17T12:20:49;15.30;99.90
5850;DHT22;2951;47.712;9.400;2024-03-17T12:23:15;15.20;99.90
5850;DHT22;2951;47.712;9.400;2024-03-17T12:25:46;15.10;99.90
5850;DHT22;2951;47.712;9.400;2024-03-17T12:28:15;15.00;99.90
5850;DHT22;2951;47.712;9.400;2024-03-17T12:30:41;15.00;99.90
5850;DHT22;2951;47.712;9.400;2024-03-17T12:33:10;14.80;99.90
5850;DHT22;2951;47.712;9.400;2024-03-17T12:35:38;14.90;99.90
5850;DHT22;2951;47.712;9.400;2024-03-17T12:38:19;15.00;99.90
5850;DHT22;2951;47.712;9.400;2024-03-17T12:40:47;15.10;99.90
5850;DHT22;2951;47.712;9.400;2024-03-17T12:43:12;14.90;99.90
5850;DHT22;2951;47.712;9.400;2024-03-17T12:45:38;14.80;99.90
5850;DHT22;2951;47.712;9.400;2024-03-17T12:48:10;14.70;99.90
5850;DHT22;2951;47.712;9.400;2024-03-17T12:50:43;14.90;99.90
5850;DHT22;2951;47.712;9.400;2024-03-17T12:53:15;14.90;99.90
5850;DHT22;2951;47.712;9.400;2024-03-17T12:55:42;14.90;99.90
5850;DHT22;2951;47.712;9.400;2024-03-17T12:58:28;14.90;99.90
5850;DHT22;2951;47.712;9.400;2024-03-17T13:01:12;14.80;99.90
5850;DHT22;2951;47.712;9.400;2024-03-17T13:03:39;14.60;99.90
5850;DHT22;2951;47.712;9.400;2024-03-17T13:06:08;14.90;99.90
5850;DHT22;2951;47.712;9.400;2024-03-17T13:08:35;15.00;99.90
5850;DHT22;2951;47.712;9.400;2024-03-17T13:11:02;15.10;99.90
5850;DHT22;2951;47.712;9.400;2024-03-17T13:13:31;15.30;99.90
5850;DHT22;2951;47.712;9.400;2024-03-17T13:15:57;15.30;99.90
5850;DHT22;2951;47.712;9.400;2024-03-17T13:18:24;15.40;99.90
5850;DHT22;2951;47.712;9.400;2024-03-17T13:20:56;15.50;99.90
5850;DHT22;2951;47.712;9.400;2024-03-17T13:23:23;15.50;99.90
5850;DHT22;2951;47.712;9.400;2024-03-17T13:25:55;15.30;99.90
5850;DHT22;2951;47.712;9.400;2024-03-17T13:28:21;15.20;99.90
5850;DHT22;2951;47.712;9.400;2024-03-17T13:30:46;15.30;99.90
5850;DHT22;2951;47.712;9.400;2024-03-17T13:33:13;15.10;99.90
5850;DHT22;2951;47.712;9.400;2024-03-17T13:35:39;15.00;99.90
5850;DHT22;2951;47.712;9.400;2024-03-17T13:38:09;14.90;99.90
5850;DHT22;2951;47.712;9.400;2024-03-17T13:40:37;14.70;99.90
5850;DHT22;2951;47.712;9.400;2024-03-17T13:43:03;14.80;99.90
5850;DHT22;2951;47.712;9.400;2024-03-17T13:45:31;14.90;99.90
5850;DHT22;2951;47.712;9.400;2024-03-17T13:47:59;15.00;99.90
5850;DHT22;2951;47.712;9.400;2024-03-17T13:50:26;15.20;99.90
5850;DHT22;2951;47.712;9.400;2024-03-17T13:52:53;15.20;99.90
5850;DHT22;2951;47.712;9.400;2024-03-17T13:55:22;15.00;99.90
5850;DHT22;2951;47.712;9.400;2024-03-17T13:57:55;14.80;99.90
5850;DHT22;2951;47.712;9.400;2024-03-17T14:00:21;14.70;99.90
5850;DHT22;2951;47.712;9.400;2024-03-17T14:02:48;14.50;99.90
5850;DHT22;2951;47.712;9.400;2024-03-17T14:05:18;14.50;99.90
5850;DHT22;2951;47.712;9.400;2024-03-17T14:07:44;14.50;99.90
5850;DHT22;2951;47.712;9.400;2024-03-17T14:10:11;14.60;99.90
5850;DHT22;2951;47.712;9.400;2024-03-17T14:12:37;14.30;99.90
5850;DHT22;2951;47.712;9.400;2024-03-17T14:15:03;14.40;99.90
5850;DHT22;2951;47.712;9.400;2024-03-17T14:17:30;14.50;99.90
5850;DHT22;2951;47.712;9.400;2024-03-17T14:20:00;14.50;99.90
5850;DHT22;2951;47.712;9.400;2024-03-17T14:22:27;14.40;99.90
5850;DHT22;2951;47.712;9.400;2024-03-17T14:24:53;14.20;99.90
5850;DHT22;2951;47.712;9.400;2024-03-17T14:27:18;14.00;99.90
5850;DHT22;2951;47.712;9.400;2024-03-17T14:29:47;14.00;99.90
5850;DHT22;2951;47.712;9.400;2024-03-17T14:32:12;13.90;99.90
5850;DHT22;2951;47.712;9.400;2024-03-17T14:34:40;13.80;99.90
5850;DHT22;2951;47.712;9.400;2024-03-17T14:37:06;13.90;99.90
5850;DHT22;2951;47.712;9.400;2024-03-17T14:39:32;13.90;99.90
5850;DHT22;2951;47.712;9.400;2024-03-17T14:41:58;13.90;99.90
5850;DHT22;2951;47.712;9.400;2024-03-17T14:44:25;13.70;99.90
5850;DHT22;2951;47.712;9.400;2024-03-17T14:46:50;13.80;99.90
5850;DHT22;2951;47.712;9.400;2024-03-17T14:49:17;13.60;99.90
5850;DHT22;2951;47.712;9.400;2024-03-17T14:51:42;13.50;99.90
5850;DHT22;2951;47.712;9.400;2024-03-17T14:54:08;13.40;99.90
5850;DHT22;2951;47.712;9.400;2024-03-17T14:56:38;13.30;99.90
5850;DHT22;2951;47.712;9.400;2024-03-17T14:59:05;13.60;99.90
5850;DHT22;2951;47.712;9.400;2024-03-17T15:01:31;13.60;99.90
5850;DHT22;2951;47.712;9.400;2024-03-17T15:03:57;13.40;99.90
5850;DHT22;2951;47.712;9.400;2024-03-17T15:06:23;13.10;99.90
5850;DHT22;2951;47.712;9.400;2024-03-17T15:08:50;13.30;99.90
5850;DHT22;2951;47.712;9.400;2024-03-17T15:11:16;13.40;99.90
5850;DHT22;2951;47.712;9.400;2024-03-17T15:13:43;13.50;99.90
5850;DHT22;2951;47.712;9.400;2024-03-17T15:16:09;13.70;99.90
5850;DHT22;2951;47.712;9.400;2024-03-17T15:18:35;13.90;99.90
5850;DHT22;2951;47.712;9.400;2024-03-17T15:21:01;14.10;99.90
5850;DHT22;2951;47.712;9.400;2024-03-17T15:23:27;14.30;99.90
5850;DHT22;2951;47.712;9.400;2024-03-17T15:26:00;14.20;99.90
5850;DHT22;2951;47.712;9.400;2024-03-17T15:28:34;14.40;99.90
5850;DHT22;2951;47.712;9.400;2024-03-17T15:31:07;14.40;99.90
5850;DHT22;2951;47.712;9.400;2024-03-17T15:33:33;14.50;99.90
5850;DHT22;2951;47.712;9.400;2024-03-17T15:36:04;14.50;99.90
5850;DHT22;2951;47.712;9.400;2024-03-17T15:38:30;14.30;99.90
5850;DHT22;2951;47.712;9.400;2024-03-17T15:40:57;13.90;99.90
5850;DHT22;2951;47.712;9.400;2024-03-17T15:43:22;13.70;99.90
5850;DHT22;2951;47.712;9.400;2024-03-17T15:45:48;13.60;99.90
5850;DHT22;2951;47.712;9.400;2024-03-17T15:48:17;13.70;99.90
5850;DHT22;2951;47.712;9.400;2024-03-17T15:50:43;13.60;99.90
5850;DHT22;2951;47.712;9.400;2024-03-17T15:53:09;13.50;99.90
5850;DHT22;2951;47.712;9.400;2024-03-17T15:55:35;13.50;99.90
5850;DHT22;2951;47.712;9.400;2024-03-17T15:58:00;13.30;99.90
5850;DHT22;2951;47.712;9.400;2024-03-17T16:00:26;13.30;99.90
5850;DHT22;2951;47.712;9.400;2024-03-17T16:02:52;13.10;99.90
5850;DHT22;2951;47.712;9.400;2024-03-17T16:05:19;13.00;99.90
5850;DHT22;2951;47.712;9.400;2024-03-17T16:07:45;12.80;99.90
5850;DHT22;2951;47.712;9.400;2024-03-17T16:10:11;12.70;99.90
5850;DHT22;2951;47.712;9.400;2024-03-17T16:12:39;12.70;99.90
5850;DHT22;2951;47.712;9.400;2024-03-17T16:15:05;12.70;99.90
5850;DHT22;2951;47.712;9.400;2024-03-17T16:17:39;12.60;99.90
5850;DHT22;2951;47.712;9.400;2024-03-17T16:20:08;12.50;99.90
5850;DHT22;2951;47.712;9.400;2024-03-17T16:22:39;12.40;99.90
5850;DHT22;2951;47.712;9.400;2024-03-17T16:25:05;12.40;99.90
5850;DHT22;2951;47.712;9.400;2024-03-17T16:27:31;12.40;99.90
5850;DHT22;2951;47.712;9.400;2024-03-17T16:29:58;12.20;99.90
5850;DHT22;2951;47.712;9.400;2024-03-17T16:32:26;12.30;99.90
5850;DHT22;2951;47.712;9.400;2024-03-17T16:34:53;12.40;99.90
5850;DHT22;2951;47.712;9.400;2024-03-17T16:37:19;12.50;99.90
5850;DHT22;2951;47.712;9.400;2024-03-17T16:39:45;12.50;99.90
5850;DHT22;2951;47.712;9.400;2024-03-17T16:42:11;12.60;99.90